航空気象通報

ウインドサーファーのための航空気象通報による風予報です。

6/15-6/17の航空気象通報

2017年06月16日 00時53分15秒 | TAF
羽田空港
TAF RJTT 151108Z 1512/1618 20012KT 9999 FEW015 SCT060
BECMG 1517/1519 25004KT
BECMG 1521/1523 12010KT
BECMG 1603/1606 18015KT
BECMG 1612/1615 04014KT
日本時間15日22時-16日02時:200度から12ノットの風
02-04時:風が変化
04-06時:250度から4ノットの風
06-08時:風が変化
08-12時:120度から10ノットの風
12-15時:風が変化
15-21時:180度から15ノットの風
21-24時:風が変化
17日00-03時:040度から14ノットの風


静岡空港
TAF RJNS 151105Z 1512/1618 26005KT 9999 FEW020
TEMPO 1513/1518 FEW005 BKN008
BECMG 1600/1603 24015KT
TEMPO 1603/1609 24020G30KT
BECMG 1615/1618 34004KT
日本時間15日21時-16日09時:260度から5ノットの風
09-12時:風が変化
12-24時:240度から15ノットの風
17日00-03時:風が変化
03時:340度から4ノットの風


福岡空港
TAF RJFF 151106Z 1512/1618 36005KT 9999 FEW045
BECMG 1512/1514 13003KT
BECMG 1600/1603 33010KT
BECMG 1612/1615 15003KT
日本時間15日21時:360度から5ノットの風
21-23時:風が変化
23時-16日09時:130度から3ノットの風
09-12時:風が変化
12-21時:330度から10ノットの風
21-24時:風が変化
17日00-03時:150度から3ノットの風


那覇空港
TAF ROAH 151107Z 1512/1618 08004KT 9999 FEW015 SCT030
TEMPO 1606/1612 4000 RA
日本時間15日12時-17日03時:080度から4ノットの風

但し、16日15-21時の間:ときどき

石垣空港
TAF ROIG 151110Z 1512/1618 06010KT 9999 -RA SCT006 BKN010
TEMPO 1512/1515 4000 RA
BECMG 1522/1600 19009KT
TEMPO 1606/1609 4000 SHRA SCT006 BKN010 FEW015CB
BECMG 1609/1612 34006KT
日本時間15日21時-16日07時:060度から10ノットの風
07-09時:風が変化
09-18時:190度から9ノットの風
18-21時:風が変化
21時-17日03時:340度から6ノットの風


マウイのカフルイ空港
PHOG 151138Z 1512/1612 06010KT P6SM VCSH SCT020 BKN050
TEMPO 1512/1516 06010G18KT
FM152000 06015G25KT P6SM SCT025 SCT050 SCT250
FM160600 06010KT P6SM SCT025 SCT050 SCT250
ハワイ時間15日02-10時:060度から10ノットの風
但し、02-06時の間:ときどき060度から10ノット、突風18ノット

10-20時:060度から15ノット、突風25ノット
20時-17日02時:060度から10ノットの風


サイパン空港
TAF PGSN 151122Z 1512/1612 11010KT P6SM VCSH SCT018 SCT030
マリアナ時間15日22時-17日22時:110度から10ノットの風

ジャンル:
お天気
コメント   この記事についてブログを書く
この記事をはてなブックマークに追加
« 6/13-6/15の航空気象通報 | トップ | 6/16-6/18の航空気象通報 »
最近の画像もっと見る

コメントを投稿

ブログ作成者から承認されるまでコメントは反映されません。

コメント利用規約に同意の上コメント投稿を行ってください。

数字4桁を入力し、投稿ボタンを押してください。

あわせて読む

トラックバック

この記事のトラックバック  Ping-URL
ブログ作成者から承認されるまでトラックバックは反映されません。
  • 30日以上前の記事に対するトラックバックは受け取らないよう設定されております。
  • 送信元の記事内容が半角英数のみのトラックバックは受け取らないよう設定されております。
  • このブログへのリンクがない記事からのトラックバックは受け取らないよう設定されております。
  • ※ブログ管理者のみ、編集画面で設定の変更が可能です。